Terminal Aerodrome Forecast
Issued by NWS St Louis, MO

Home | Current Version | Previous Version | Text Only | Print | Product List | Glossary On
Versions: 1 2 3 4 5 6 7 8 9 10 11 12 13 14 15 16 17 18 19 20 21 22 23 24 25 26
000
FTUS43 KLSX 130906 AAA
TAFSTL
TAF AMD
KSTL 130906Z 1309/1412 23007KT P6SM SKC
     FM131100 19008KT P6SM FEW250 WS020/24035KT
     FM131400 20012G23KT P6SM FEW250 WS020/22040KT
     FM131700 25015G30KT P6SM SCT250
     FM132100 29015G26KT P6SM BKN200
     FM140600 32011G20KT P6SM BKN035=

USA.gov is the U.S. government's official web portal to all federal, state and local government web resources and services.